Time;durP1;ratioP1;P1;durP2;ratioP2;P2;SDS_P1;SDS_P2;PMS_P1;PMS_P2;Temp;Humidity;BMP_temperature;BMP_pressure;BME280_temperature;BME280_humidity;BME280_pressure;Samples;Min_cycle;Max_cycle;Signal;HPM_P1;HPM_P2
2024/01/19 00:02:01;;;;;;;1.70;0.97;;;0.10;99.90;;;;;;5048799;23;20150;-95
2024/01/19 00:04:02;;;;;;;4.30;2.37;;;0.10;99.90;;;;;;5048733;23;20164;-94
2024/01/19 00:06:03;;;;;;;8.47;3.93;;;0.00;99.90;;;;;;5022874;23;20198;-93
2024/01/19 00:08:06;;;;;;;12.30;6.03;;;-0.10;99.90;;;;;;5047349;23;20150;-95
2024/01/19 00:10:09;;;;;;;7.10;1.67;;;-0.10;99.90;;;;;;5047578;23;20190;-94
2024/01/19 00:12:10;;;;;;;1.67;1.07;;;-0.20;99.90;;;;;;5072333;23;20154;-95
2024/01/19 00:14:11;;;;;;;1.07;0.57;;;-0.10;99.90;;;;;;5023389;23;20197;-93
2024/01/19 00:16:13;;;;;;;11.27;2.10;;;-0.10;99.90;;;;;;5023075;23;20175;-95
2024/01/19 00:18:13;;;;;;;1.37;1.17;;;-0.20;99.90;;;;;;5048675;23;20134;-94
2024/01/19 00:20:15;;;;;;;0.70;0.33;;;-0.20;99.90;;;;;;5046758;23;20200;-94
2024/01/19 00:22:15;;;;;;;2.83;1.47;;;-0.20;99.90;;;;;;5025275;23;20151;-95
2024/01/19 00:24:19;;;;;;;1.03;0.70;;;-0.30;99.90;;;;;;5023685;23;20162;-94
2024/01/19 00:26:21;;;;;;;4.10;0.40;;;-0.30;99.90;;;;;;5048689;23;20525;-96
2024/01/19 00:28:22;;;;;;;5.53;0.93;;;-0.30;99.90;;;;;;5046408;23;20162;-94
2024/01/19 00:30:26;;;;;;;2.73;0.60;;;-0.30;99.90;;;;;;5023674;23;20195;-95
2024/01/19 00:32:30;;;;;;;1.67;0.83;;;-0.30;99.90;;;;;;5046787;23;20154;-96
2024/01/19 00:35:09;;;;;;;2.03;1.07;;;-0.30;99.90;;;;;;5026079;23;20177;-94
2024/01/19 00:37:21;;;;;;;0.53;0.53;;;-0.30;99.90;;;;;;5042874;23;20603;-95
2024/01/19 00:39:41;;;;;;;1.07;0.40;;;-0.20;99.90;;;;;;5051768;23;20150;-94
2024/01/19 00:42:00;;;;;;;1.03;0.80;;;-0.20;99.90;;;;;;5048468;23;20509;-96
2024/01/19 00:44:16;;;;;;;1.30;0.77;;;-0.10;99.90;;;;;;5050131;23;20158;-94
2024/01/19 00:46:17;;;;;;;1.27;0.90;;;-0.10;99.90;;;;;;5047854;23;20177;-94
2024/01/19 00:48:41;;;;;;;3.03;0.93;;;-0.10;99.90;;;;;;5001487;23;20160;-95
2024/01/19 00:50:50;;;;;;;5.50;0.77;;;-0.20;99.90;;;;;;5048004;23;20649;-95
2024/01/19 00:53:06;;;;;;;3.73;1.07;;;-0.10;99.90;;;;;;5028182;23;20146;-96
2024/01/19 00:55:59;;;;;;;2.97;1.03;;;-0.10;99.90;;;;;;5025898;23;20165;-95
2024/01/19 00:58:21;;;;;;;;;;;;;;;;;;;;;
2024/01/19 01:01:10;;;;;;;0.60;0.53;;;-0.20;99.90;;;;;;5075355;23;20660;-96
2024/01/19 01:06:43;;;;;;;1.00;0.67;;;-0.30;99.90;;;;;;5031078;23;20178;-95
2024/01/19 01:08:56;;;;;;;;;;;;;;;;;;;;;
2024/01/19 01:18:01;;;;;;;1.30;0.90;;;-0.20;99.90;;;;;;4959517;23;20174;-96
2024/01/19 01:23:52;;;;;;;3.60;0.80;;;-0.20;99.90;;;;;;4978595;23;20175;-94
2024/01/19 01:26:16;;;;;;;0.83;0.57;;;-0.30;99.90;;;;;;5010044;23;20170;-96
2024/01/19 01:29:09;;;;;;;;;;;;;;;;;;;;;
2024/01/19 01:31:51;;;;;;;;;;;;;;;;;;;;;
2024/01/19 01:34:03;;;;;;;3.63;1.03;;;-0.40;99.90;;;;;;5049622;23;20229;-95
2024/01/19 01:36:09;;;;;;;1.67;0.80;;;-0.50;99.90;;;;;;5025526;23;20178;-96
2024/01/19 01:38:45;;;;;;;2.30;1.00;;;-0.60;99.90;;;;;;5071872;23;20149;-96
2024/01/19 01:41:57;;;;;;;1.20;1.10;;;-0.80;99.90;;;;;;5047482;23;20229;-95
2024/01/19 01:44:08;;;;;;;;;;;;;;;;;;;;;
2024/01/19 01:46:31;;;;;;;;;;;;;;;;;;;;;
2024/01/19 01:48:57;;;;;;;3.77;1.93;;;-1.40;99.90;;;;;;5046949;23;20198;-95
2024/01/19 01:51:35;;;;;;;2.53;1.70;;;-1.70;99.90;;;;;;5048601;23;20189;-94
2024/01/19 01:53:50;;;;;;;;;;;;;;;;;;;;;
2024/01/19 01:56:15;;;;;;;1.40;1.10;;;-2.20;99.90;;;;;;5048125;23;20172;-95
2024/01/19 01:59:02;;;;;;;;;;;;;;;;;;;;;
2024/01/19 02:01:34;;;;;;;1.23;0.70;;;-2.40;99.90;;;;;;5051696;23;20161;-95
2024/01/19 02:04:34;;;;;;;;;;;;;;;;;;;;;
2024/01/19 03:26:49;;;;;;;;;;;;;;;;;;;;;
2024/01/19 03:36:58;;;;;;;;;;;;;;;;;;;;;
2024/01/19 03:40:09;;;;;;;;;;;;;;;;;;;;;
2024/01/19 03:48:09;;;;;;;1.43;1.00;;;-2.90;99.90;;;;;;4854109;24;20249;-96
2024/01/19 03:51:08;;;;;;;2.20;1.37;;;-3.00;99.90;;;;;;4798904;24;20249;-96
2024/01/19 03:54:21;;;;;;;3.87;1.80;;;-3.10;99.90;;;;;;4873361;24;20211;-95
2024/01/19 03:56:33;;;;;;;0.80;0.80;;;-3.10;99.90;;;;;;4872606;24;20194;-95
2024/01/19 03:58:42;;;;;;;4.87;1.83;;;-3.00;99.90;;;;;;4896984;23;20188;-95
2024/01/19 04:00:46;;;;;;;2.40;1.60;;;-3.10;99.90;;;;;;4997741;23;20202;-95
2024/01/19 04:02:52;;;;;;;2.07;0.87;;;-3.00;99.90;;;;;;5033576;23;20135;-95
2024/01/19 04:06:06;;;;;;;4.73;1.63;;;-3.00;99.90;;;;;;5060073;23;20206;-95
2024/01/19 04:09:23;;;;;;;1.03;0.57;;;-3.00;99.90;;;;;;5084102;23;20225;-95
2024/01/19 04:11:35;;;;;;;0.90;0.70;;;-3.10;99.90;;;;;;5057506;23;20190;-95
2024/01/19 04:14:07;;;;;;;2.40;0.90;;;-3.00;99.90;;;;;;5035206;23;20147;-95
2024/01/19 04:18:54;;;;;;;2.67;1.77;;;-3.10;99.90;;;;;;5041495;23;20157;-96
2024/01/19 04:21:19;;;;;;;1.47;1.37;;;-3.10;99.90;;;;;;5052157;23;20169;-95
2024/01/19 04:23:46;;;;;;;4.43;2.00;;;-3.10;99.90;;;;;;5055012;23;20150;-96
2024/01/19 04:26:13;;;;;;;2.33;1.57;;;-3.00;99.90;;;;;;5055834;23;20194;-95
2024/01/19 04:28:28;;;;;;;4.33;2.03;;;-3.10;99.90;;;;;;5030052;23;20159;-95
2024/01/19 04:30:37;;;;;;;4.63;2.70;;;-3.10;99.90;;;;;;5029973;23;20245;-95
2024/01/19 04:32:48;;;;;;;2.90;1.80;;;-3.10;99.90;;;;;;5029542;23;20154;-95
2024/01/19 04:34:56;;;;;;;6.37;2.30;;;-3.10;99.90;;;;;;5027505;23;20159;-95
2024/01/19 04:37:20;;;;;;;2.83;1.20;;;-3.00;99.90;;;;;;5057301;23;20652;-95
2024/01/19 04:39:22;;;;;;;0.93;0.80;;;-3.10;99.90;;;;;;5051362;23;20150;-95
2024/01/19 04:41:24;;;;;;;3.57;2.63;;;-3.10;99.90;;;;;;5026445;23;20495;-95
2024/01/19 04:43:34;;;;;;;2.57;2.07;;;-3.10;99.90;;;;;;5053300;23;20162;-95
2024/01/19 04:45:36;;;;;;;6.97;2.37;;;-3.10;99.90;;;;;;5048612;23;20178;-95
2024/01/19 04:47:39;;;;;;;6.00;1.80;;;-3.00;99.90;;;;;;5025647;23;20657;-95
2024/01/19 04:49:42;;;;;;;2.53;1.47;;;-3.00;99.90;;;;;;5050518;23;20162;-95
2024/01/19 04:51:46;;;;;;;3.57;2.00;;;-3.10;99.90;;;;;;5026991;23;20736;-95
2024/01/19 04:53:49;;;;;;;3.13;2.40;;;-3.10;99.90;;;;;;5027681;23;20155;-94
2024/01/19 04:55:50;;;;;;;1.93;1.40;;;-3.00;99.90;;;;;;5027715;23;20182;-95
2024/01/19 04:57:56;;;;;;;2.97;1.80;;;-3.00;99.90;;;;;;5028605;23;20203;-95
2024/01/19 04:59:57;;;;;;;3.73;1.80;;;-3.00;99.90;;;;;;5048610;23;20150;-95
2024/01/19 05:02:04;;;;;;;5.20;1.67;;;-3.10;99.90;;;;;;5027021;23;20151;-94
2024/01/19 05:04:05;;;;;;;4.07;2.07;;;-3.10;99.90;;;;;;5049103;23;20224;-95
2024/01/19 05:06:08;;;;;;;5.07;2.23;;;-3.20;99.90;;;;;;5025687;23;20171;-95
2024/01/19 05:08:12;;;;;;;2.80;1.13;;;-3.20;99.90;;;;;;5048146;23;20161;-95
2024/01/19 05:10:13;;;;;;;2.63;1.43;;;-3.30;99.90;;;;;;5025628;23;20152;-94
2024/01/19 05:12:14;;;;;;;2.53;1.77;;;-3.20;99.90;;;;;;5025306;23;20155;-95
2024/01/19 05:14:15;;;;;;;6.23;2.67;;;-3.20;99.90;;;;;;5023138;23;20155;-95
2024/01/19 05:16:16;;;;;;;1.97;1.33;;;-3.20;99.90;;;;;;5050391;23;20174;-95
2024/01/19 05:18:21;;;;;;;1.47;1.20;;;-3.20;99.90;;;;;;5024939;23;20147;-95
2024/01/19 05:20:22;;;;;;;3.43;2.00;;;-3.20;99.90;;;;;;5024927;23;20182;-94
2024/01/19 05:22:26;;;;;;;3.03;2.13;;;-3.30;99.90;;;;;;5048356;23;20234;-94
2024/01/19 05:24:27;;;;;;;3.20;2.27;;;-3.30;99.90;;;;;;5023740;23;20155;-96
2024/01/19 05:26:29;;;;;;;2.80;2.30;;;-3.30;99.90;;;;;;5025304;23;20190;-95
2024/01/19 05:28:33;;;;;;;1.73;1.23;;;-3.40;99.90;;;;;;5023585;23;20161;-96
2024/01/19 05:30:34;;;;;;;2.33;1.60;;;-3.30;99.90;;;;;;5026637;23;20191;-95
2024/01/19 05:32:35;;;;;;;4.93;2.87;;;-3.20;99.90;;;;;;5030186;23;20156;-95
2024/01/19 05:34:36;;;;;;;2.57;1.70;;;-3.10;99.90;;;;;;5026407;23;20155;-93
2024/01/19 05:36:37;;;;;;;3.60;1.87;;;-3.10;99.90;;;;;;5047882;23;20253;-95
2024/01/19 05:38:38;;;;;;;3.37;2.00;;;-3.10;99.90;;;;;;5047816;23;20240;-94
2024/01/19 05:40:38;;;;;;;2.40;1.70;;;-2.90;99.90;;;;;;5048352;23;20186;-94
2024/01/19 05:42:40;;;;;;;4.70;2.40;;;-3.00;99.90;;;;;;5026180;23;20160;-95
2024/01/19 05:44:42;;;;;;;2.67;0.93;;;-3.20;99.90;;;;;;5023989;23;20187;-94
2024/01/19 05:46:43;;;;;;;4.97;1.50;;;-3.30;99.90;;;;;;5022386;23;20257;-94
2024/01/19 05:48:44;;;;;;;2.60;1.87;;;-3.20;99.90;;;;;;5022734;23;20484;-94
2024/01/19 05:50:45;;;;;;;2.77;1.13;;;-3.20;99.90;;;;;;5021988;23;20246;-94
2024/01/19 05:52:45;;;;;;;1.80;1.70;;;-3.20;99.90;;;;;;5024326;23;20555;-95
2024/01/19 05:54:46;;;;;;;7.90;2.13;;;-3.20;99.90;;;;;;5028442;23;20158;-94
2024/01/19 05:56:47;;;;;;;3.23;1.43;;;-3.30;99.90;;;;;;5024756;23;20175;-94
2024/01/19 05:58:48;;;;;;;6.50;2.80;;;-3.30;99.90;;;;;;5023971;23;20162;-94
2024/01/19 06:00:49;;;;;;;2.53;1.20;;;-3.20;99.90;;;;;;5024990;23;20199;-93
2024/01/19 06:02:50;;;;;;;2.57;1.37;;;-3.30;99.90;;;;;;5022648;23;20147;-94
2024/01/19 06:04:52;;;;;;;4.50;1.87;;;-3.40;99.90;;;;;;5048306;23;20146;-94
2024/01/19 06:06:57;;;;;;;4.73;2.53;;;-3.40;99.90;;;;;;5045844;23;20222;-94
2024/01/19 06:08:58;;;;;;;5.17;3.00;;;-3.30;99.90;;;;;;5046270;23;20159;-93
2024/01/19 06:10:59;;;;;;;5.67;1.60;;;-3.30;99.90;;;;;;5023366;23;20522;-93
2024/01/19 06:13:00;;;;;;;3.17;1.70;;;-3.40;99.90;;;;;;5021080;23;20151;-93
2024/01/19 06:15:01;;;;;;;8.20;2.37;;;-3.40;99.90;;;;;;5045373;23;20166;-94
2024/01/19 06:17:03;;;;;;;3.20;2.00;;;-3.50;99.90;;;;;;5045949;23;20213;-93
2024/01/19 06:19:04;;;;;;;2.27;1.30;;;-3.60;99.90;;;;;;5045973;23;20182;-93
2024/01/19 06:21:11;;;;;;;4.57;3.17;;;-3.60;99.90;;;;;;5021339;23;20163;-93
2024/01/19 06:23:15;;;;;;;4.90;2.67;;;-3.60;99.90;;;;;;5046383;23;20613;-93
2024/01/19 06:25:16;;;;;;;3.33;1.63;;;-3.50;99.90;;;;;;5044732;23;20155;-93
2024/01/19 06:27:20;;;;;;;4.57;2.70;;;-3.40;99.90;;;;;;5022557;23;20186;-95
2024/01/19 06:29:21;;;;;;;4.13;1.93;;;-3.20;99.90;;;;;;4998298;23;20223;-93
2024/01/19 06:31:22;;;;;;;4.77;2.43;;;-3.10;99.90;;;;;;5021440;23;20190;-93
2024/01/19 06:33:23;;;;;;;4.73;2.40;;;-3.20;99.90;;;;;;5022613;23;20151;-93
2024/01/19 06:35:24;;;;;;;5.40;1.80;;;-3.30;99.90;;;;;;5020866;23;20163;-94
2024/01/19 06:37:25;;;;;;;3.83;2.57;;;-3.40;99.90;;;;;;5023671;23;20135;-94
2024/01/19 06:39:26;;;;;;;3.00;2.00;;;-3.50;99.90;;;;;;5021270;23;20155;-95
2024/01/19 06:41:26;;;;;;;2.33;2.00;;;-3.50;99.90;;;;;;5020830;23;20590;-93
2024/01/19 06:43:27;;;;;;;5.47;1.97;;;-3.60;99.90;;;;;;5020637;23;20154;-93
2024/01/19 06:45:29;;;;;;;3.10;1.27;;;-3.70;99.90;;;;;;4998095;23;20187;-93
2024/01/19 06:47:31;;;;;;;2.13;1.60;;;-3.70;99.90;;;;;;4997009;23;20595;-93
2024/01/19 06:49:32;;;;;;;2.70;2.17;;;-3.80;99.90;;;;;;4997745;23;20147;-93
2024/01/19 06:51:33;;;;;;;4.90;2.30;;;-3.70;99.90;;;;;;4998095;23;20725;-93
2024/01/19 06:53:34;;;;;;;8.13;2.73;;;-3.70;99.90;;;;;;5025281;23;20175;-93
2024/01/19 06:55:35;;;;;;;3.20;1.80;;;-3.60;99.90;;;;;;5022615;23;20179;-93
2024/01/19 06:57:36;;;;;;;2.93;1.37;;;-3.70;99.90;;;;;;4997391;23;20207;-92
2024/01/19 06:59:37;;;;;;;3.83;2.50;;;-3.70;99.90;;;;;;5021530;23;20160;-93
2024/01/19 07:01:38;;;;;;;10.40;3.03;;;-3.70;99.90;;;;;;5021232;23;20234;-93
2024/01/19 07:03:39;;;;;;;1.40;1.30;;;-3.70;99.90;;;;;;5023634;23;20586;-93
2024/01/19 07:05:42;;;;;;;3.20;2.20;;;-3.70;99.90;;;;;;5023746;23;20205;-93
2024/01/19 07:07:44;;;;;;;3.07;2.10;;;-3.70;99.90;;;;;;5021936;23;20162;-92
2024/01/19 07:09:45;;;;;;;5.07;2.43;;;-3.80;99.90;;;;;;5022656;23;20151;-93
2024/01/19 07:11:46;;;;;;;2.80;1.77;;;-3.80;99.90;;;;;;4998466;23;20201;-93
2024/01/19 07:13:47;;;;;;;6.53;2.50;;;-3.70;99.90;;;;;;5021735;23;20159;-93
2024/01/19 07:15:48;;;;;;;6.33;2.23;;;-3.80;99.90;;;;;;5000350;23;20178;-93
2024/01/19 07:17:48;;;;;;;1.70;1.50;;;-3.80;99.90;;;;;;5023692;23;20151;-93
2024/01/19 07:19:49;;;;;;;2.13;1.93;;;-3.80;99.90;;;;;;5025652;23;20158;-92
2024/01/19 07:21:50;;;;;;;4.27;2.47;;;-3.80;99.90;;;;;;5051444;23;20158;-92
2024/01/19 07:23:51;;;;;;;3.70;2.17;;;-3.80;99.90;;;;;;5000374;23;20160;-92
2024/01/19 07:25:52;;;;;;;3.33;2.13;;;-3.80;99.90;;;;;;5029462;23;20228;-92
2024/01/19 07:27:53;;;;;;;2.87;2.00;;;-3.70;99.90;;;;;;5047705;23;20146;-93
2024/01/19 07:29:54;;;;;;;3.10;1.30;;;-3.60;99.90;;;;;;5025713;23;20161;-93
2024/01/19 07:31:55;;;;;;;5.80;2.07;;;-3.40;99.90;;;;;;5048162;23;20190;-93
2024/01/19 07:33:56;;;;;;;7.90;4.00;;;-3.30;99.90;;;;;;5025153;23;20185;-91
2024/01/19 07:35:57;;;;;;;5.67;2.77;;;-3.20;99.90;;;;;;5024893;23;20182;-93
2024/01/19 07:37:57;;;;;;;6.23;1.67;;;-3.10;99.90;;;;;;5022928;23;20178;-92
2024/01/19 07:39:58;;;;;;;3.70;1.97;;;-2.90;99.90;;;;;;5023129;23;20155;-93
2024/01/19 07:42:00;;;;;;;2.03;1.33;;;-2.70;99.90;;;;;;5023607;23;20215;-92
2024/01/19 07:44:00;;;;;;;2.73;1.37;;;-3.00;99.90;;;;;;5024185;23;20209;-92
2024/01/19 07:46:01;;;;;;;3.40;2.13;;;-3.30;99.90;;;;;;5023450;23;20618;-92
2024/01/19 07:48:02;;;;;;;3.13;2.13;;;-3.40;99.90;;;;;;5022998;23;20163;-92
2024/01/19 07:50:04;;;;;;;5.07;1.53;;;-3.50;99.90;;;;;;5048211;23;20156;-92
2024/01/19 07:52:05;;;;;;;5.87;2.27;;;-3.60;99.90;;;;;;5022595;23;20174;-92
2024/01/19 07:54:06;;;;;;;5.50;2.90;;;-3.60;99.90;;;;;;5022068;23;20151;-92
2024/01/19 07:56:07;;;;;;;8.10;3.13;;;-3.50;99.90;;;;;;5022815;23;20182;-92
2024/01/19 07:58:08;;;;;;;4.90;2.03;;;-3.50;99.90;;;;;;5024229;23;20161;-92
2024/01/19 08:00:09;;;;;;;2.70;1.87;;;-3.50;99.90;;;;;;5022155;23;20155;-92
2024/01/19 08:02:10;;;;;;;2.83;2.03;;;-3.40;99.90;;;;;;5022716;23;20233;-92
2024/01/19 08:04:11;;;;;;;3.70;2.53;;;-3.40;99.90;;;;;;5046181;23;20586;-92
2024/01/19 08:06:12;;;;;;;4.40;2.43;;;-3.40;99.90;;;;;;5022936;23;20175;-91
2024/01/19 08:08:13;;;;;;;3.90;2.97;;;-3.30;99.90;;;;;;5022271;23;20182;-92
2024/01/19 08:10:14;;;;;;;7.23;3.07;;;-3.20;99.90;;;;;;5047123;23;20241;-91
2024/01/19 08:12:14;;;;;;;5.33;2.93;;;-3.20;99.90;;;;;;5022004;23;20159;-93
2024/01/19 08:14:15;;;;;;;8.17;3.43;;;-3.30;99.90;;;;;;5046785;23;20213;-93
2024/01/19 08:16:16;;;;;;;10.13;2.40;;;-3.30;99.90;;;;;;5022289;23;20246;-92
2024/01/19 08:18:17;;;;;;;9.63;3.10;;;-3.40;99.90;;;;;;5047261;23;20154;-92
2024/01/19 08:20:18;;;;;;;8.53;2.80;;;-3.30;99.90;;;;;;5022850;23;20155;-92
2024/01/19 08:22:19;;;;;;;4.43;2.80;;;-3.50;99.90;;;;;;5046640;23;20150;-92
2024/01/19 08:24:19;;;;;;;5.60;2.97;;;-3.50;99.90;;;;;;5022881;23;20506;-92
2024/01/19 08:26:20;;;;;;;16.33;3.10;;;-3.50;99.90;;;;;;5022498;23;20186;-91
2024/01/19 08:28:22;;;;;;;5.33;3.10;;;-3.40;99.90;;;;;;5021706;23;20185;-92
2024/01/19 08:30:23;;;;;;;1.80;1.37;;;-3.20;99.90;;;;;;5047314;23;20639;-92
2024/01/19 08:32:24;;;;;;;4.90;2.07;;;-3.20;99.90;;;;;;5045941;23;20158;-92
2024/01/19 08:34:25;;;;;;;6.67;1.93;;;-3.00;99.90;;;;;;5021794;23;20151;-91
2024/01/19 08:36:25;;;;;;;5.83;2.97;;;-2.90;99.90;;;;;;5047173;23;20644;-91
2024/01/19 08:38:26;;;;;;;6.50;2.30;;;-2.90;99.90;;;;;;5021531;23;20155;-92
2024/01/19 08:40:27;;;;;;;5.90;3.07;;;-2.80;99.90;;;;;;5022045;23;20166;-92
2024/01/19 08:42:28;;;;;;;9.03;2.53;;;-2.60;99.90;;;;;;5046259;23;20155;-93
2024/01/19 08:44:29;;;;;;;6.70;4.07;;;-2.30;99.90;;;;;;5046376;23;20574;-92
2024/01/19 08:46:29;;;;;;;9.27;2.40;;;-1.90;99.90;;;;;;5024725;23;20206;-92
2024/01/19 08:48:31;;;;;;;5.67;3.67;;;-1.80;99.90;;;;;;5023188;23;20178;-91
2024/01/19 08:50:32;;;;;;;8.13;3.60;;;-1.80;99.90;;;;;;5044978;23;20253;-91
2024/01/19 08:52:33;;;;;;;11.83;6.10;;;-1.50;99.90;;;;;;5046027;23;20154;-92
2024/01/19 08:54:33;;;;;;;7.50;3.97;;;-1.30;99.90;;;;;;5024406;23;20315;-92
2024/01/19 08:56:34;;;;;;;9.17;4.03;;;-1.50;99.90;;;;;;5046737;23;20171;-92
2024/01/19 08:58:37;;;;;;;11.67;5.30;;;-1.40;99.90;;;;;;5047548;23;20159;-92
2024/01/19 09:00:38;;;;;;;10.10;3.87;;;-0.90;99.90;;;;;;5022704;23;20243;-92
2024/01/19 09:02:39;;;;;;;6.43;3.90;;;-0.80;99.90;;;;;;5021796;23;20155;-92
2024/01/19 09:04:40;;;;;;;9.73;4.70;;;-0.70;99.90;;;;;;5021274;23;20233;-91
2024/01/19 09:06:41;;;;;;;10.97;4.27;;;-0.80;99.90;;;;;;5021970;23;20174;-92
2024/01/19 09:08:42;;;;;;;11.63;5.63;;;-0.90;99.90;;;;;;5021888;23;20590;-93
2024/01/19 09:10:43;;;;;;;4.87;3.43;;;-0.80;99.90;;;;;;5045892;23;20633;-92
2024/01/19 09:12:44;;;;;;;14.07;5.00;;;-1.00;99.90;;;;;;5023437;23;20165;-89
2024/01/19 09:14:45;;;;;;;9.03;4.47;;;-0.80;99.90;;;;;;5022059;23;20191;-89
2024/01/19 09:16:46;;;;;;;8.57;4.17;;;-0.90;99.90;;;;;;5023617;23;20183;-93
2024/01/19 09:18:46;;;;;;;7.50;3.80;;;-0.70;99.90;;;;;;5046571;23;20667;-91
2024/01/19 09:20:47;;;;;;;8.23;4.37;;;-0.90;99.90;;;;;;5022633;23;20155;-91
2024/01/19 09:22:48;;;;;;;8.63;5.40;;;-1.20;99.90;;;;;;5047726;23;20214;-91
2024/01/19 09:24:49;;;;;;;4.80;3.87;;;-1.30;99.90;;;;;;5020957;23;20159;-91
2024/01/19 09:26:49;;;;;;;11.77;6.00;;;-1.20;99.90;;;;;;5022641;23;20213;-92
2024/01/19 09:28:50;;;;;;;9.50;4.23;;;-1.20;99.90;;;;;;5021213;23;20147;-92
2024/01/19 09:30:52;;;;;;;13.03;4.57;;;-1.20;99.90;;;;;;5021091;23;20653;-92
2024/01/19 09:32:53;;;;;;;7.13;3.43;;;-1.00;99.90;;;;;;5022803;23;20151;-91
2024/01/19 09:34:54;;;;;;;7.10;4.10;;;-0.70;99.90;;;;;;5051214;23;20162;-92
2024/01/19 09:36:55;;;;;;;11.33;4.53;;;-0.90;99.90;;;;;;5028670;23;20179;-92
2024/01/19 09:38:55;;;;;;;20.03;6.63;;;-0.90;99.90;;;;;;5028567;23;20159;-90
2024/01/19 09:41:08;;;;;;;14.67;5.30;;;-0.80;99.90;;;;;;5050790;23;20150;-89
2024/01/19 09:43:12;;;;;;;6.10;3.87;;;-0.80;99.90;;;;;;5054846;23;20190;-88
2024/01/19 09:45:19;;;;;;;8.40;3.93;;;-0.80;99.90;;;;;;5033734;23;20239;-91
2024/01/19 09:48:00;;;;;;;9.03;4.60;;;-1.10;99.90;;;;;;5062766;23;20189;-89
2024/01/19 09:50:06;;;;;;;8.13;3.77;;;-1.00;99.90;;;;;;5033281;23;20155;-90
2024/01/19 09:52:29;;;;;;;16.27;6.63;;;-0.80;99.90;;;;;;5036288;23;20159;-89
2024/01/19 09:54:33;;;;;;;7.43;3.30;;;-0.60;99.90;;;;;;5038822;23;20151;-88
2024/01/19 09:56:36;;;;;;;11.27;4.70;;;-0.70;99.90;;;;;;5035819;23;20174;-91
2024/01/19 09:58:37;;;;;;;12.10;5.23;;;-0.70;99.90;;;;;;5012960;23;20135;-90
2024/01/19 10:00:38;;;;;;;20.73;5.23;;;-0.50;99.90;;;;;;5028017;23;20159;-91
2024/01/19 10:02:51;;;;;;;8.27;3.33;;;-0.50;99.90;;;;;;5034937;23;20685;-91
2024/01/19 10:04:58;;;;;;;9.07;4.37;;;-0.70;99.90;;;;;;5034109;23;20179;-91
2024/01/19 10:07:12;;;;;;;7.43;3.43;;;-0.60;99.90;;;;;;5029665;23;20174;-92
2024/01/19 10:09:14;;;;;;;9.40;4.97;;;-0.70;99.90;;;;;;5052238;23;20189;-91
2024/01/19 10:11:16;;;;;;;6.00;2.37;;;-0.90;99.90;;;;;;5026873;23;20242;-90
2024/01/19 10:13:17;;;;;;;6.07;4.10;;;-0.90;99.90;;;;;;5051763;23;20173;-91
2024/01/19 10:15:18;;;;;;;10.90;4.53;;;-1.00;99.90;;;;;;5053695;23;20157;-91
2024/01/19 10:17:20;;;;;;;15.87;3.60;;;-1.00;99.90;;;;;;5026200;23;20210;-91
2024/01/19 10:19:21;;;;;;;7.80;2.90;;;-0.90;99.90;;;;;;5052829;23;20134;-91
2024/01/19 10:21:28;;;;;;;5.20;3.80;;;-0.90;99.90;;;;;;5055409;23;20166;-95
2024/01/19 10:23:29;;;;;;;9.93;3.73;;;-0.70;99.90;;;;;;5031720;23;20155;-93
2024/01/19 10:25:34;;;;;;;7.73;5.10;;;-0.60;99.90;;;;;;5025947;23;20227;-92
2024/01/19 10:27:50;;;;;;;7.27;3.50;;;-0.30;99.90;;;;;;5041136;23;20266;-91
2024/01/19 10:30:06;;;;;;;10.93;3.20;;;-0.30;99.90;;;;;;5072085;23;20225;-92
2024/01/19 10:32:09;;;;;;;12.87;4.70;;;-0.30;99.90;;;;;;5071330;23;20251;-92
2024/01/19 10:34:20;;;;;;;8.63;5.27;;;-0.30;99.90;;;;;;5046225;23;20554;-93
2024/01/19 10:36:21;;;;;;;8.80;4.33;;;-0.20;99.90;;;;;;5069537;23;20253;-91
2024/01/19 10:38:22;;;;;;;8.77;4.03;;;0.00;99.90;;;;;;5070726;23;20237;-92
2024/01/19 10:40:27;;;;;;;8.07;4.87;;;-0.10;99.90;;;;;;5046843;23;20146;-92
2024/01/19 10:42:39;;;;;;;11.17;5.03;;;0.10;99.90;;;;;;5047195;23;20211;-92
2024/01/19 10:44:44;;;;;;;9.47;4.67;;;0.10;99.90;;;;;;5072820;23;20564;-92
2024/01/19 10:46:46;;;;;;;24.00;6.13;;;0.20;99.90;;;;;;5051744;23;20211;-92
2024/01/19 10:48:49;;;;;;;10.70;5.83;;;0.40;99.90;;;;;;5051297;23;20158;-93
2024/01/19 10:51:00;;;;;;;4.93;3.93;;;0.50;99.90;;;;;;5079885;23;20544;-91
2024/01/19 10:53:15;;;;;;;11.93;3.40;;;0.30;99.90;;;;;;5055291;23;20154;-92
2024/01/19 10:55:18;;;;;;;7.80;4.23;;;0.20;99.90;;;;;;5058997;23;20166;-92
2024/01/19 10:57:28;;;;;;;13.00;6.13;;;0.40;99.90;;;;;;5059557;23;20154;-93
2024/01/19 10:59:28;;;;;;;12.13;4.80;;;0.30;99.90;;;;;;5060546;23;20189;-92
2024/01/19 11:01:33;;;;;;;11.63;4.83;;;0.50;99.90;;;;;;5055169;23;20159;-93
2024/01/19 11:03:35;;;;;;;10.87;4.90;;;0.70;99.90;;;;;;5079336;23;20175;-92
2024/01/19 11:05:36;;;;;;;11.03;4.47;;;0.90;99.90;;;;;;5053677;23;20237;-93
2024/01/19 11:07:41;;;;;;;9.07;5.07;;;1.00;99.90;;;;;;5075992;23;20177;-93
2024/01/19 11:09:43;;;;;;;12.00;5.57;;;1.30;99.90;;;;;;5053608;23;20158;-94
2024/01/19 11:11:53;;;;;;;8.83;4.10;;;1.10;99.90;;;;;;5052354;23;20214;-93
2024/01/19 11:14:00;;;;;;;7.27;4.17;;;1.20;99.90;;;;;;5078167;23;20154;-93
2024/01/19 11:16:06;;;;;;;9.90;4.97;;;1.20;99.90;;;;;;5053836;23;20181;-93
2024/01/19 11:18:07;;;;;;;8.37;4.03;;;0.90;99.90;;;;;;5056507;23;20150;-93
2024/01/19 11:20:12;;;;;;;7.53;3.07;;;0.70;99.90;;;;;;5052070;23;20146;-90
2024/01/19 11:22:18;;;;;;;4.97;3.67;;;0.70;99.90;;;;;;5053081;23;20151;-94
2024/01/19 11:24:23;;;;;;;6.83;3.30;;;0.60;99.90;;;;;;5059528;23;20154;-93
2024/01/19 11:26:43;;;;;;;9.53;4.83;;;0.70;99.90;;;;;;5080239;23;20176;-93
2024/01/19 11:29:32;;;;;;;5.67;3.37;;;0.80;99.90;;;;;;5035590;23;20531;-94
2024/01/19 11:31:41;;;;;;;3.20;1.87;;;0.80;99.90;;;;;;5032877;23;20186;-92
2024/01/19 11:34:40;;;;;;;9.60;4.07;;;0.80;99.90;;;;;;5034478;23;20159;-93
2024/01/19 11:40:02;;;;;;;5.23;3.37;;;0.50;99.90;;;;;;5059866;23;20142;-95
2024/01/19 11:42:04;;;;;;;7.47;3.93;;;0.70;99.90;;;;;;5028978;23;20174;-94
2024/01/19 11:44:18;;;;;;;9.33;3.93;;;0.70;99.90;;;;;;5050786;23;20134;-94
2024/01/19 11:49:41;;;;;;;8.63;3.93;;;0.60;99.90;;;;;;5080833;23;20158;-96
2024/01/19 11:52:38;;;;;;;;;;;;;;;;;;;;;
2024/01/19 11:55:38;;;;;;;;;;;;;;;;;;;;;
2024/01/19 12:00:51;;;;;;;8.50;3.57;;;0.70;99.90;;;;;;5056134;23;20233;-94
2024/01/19 12:21:33;;;;;;;10.60;3.47;;;1.20;99.90;;;;;;5041384;23;20292;-96
2024/01/19 12:23:35;;;;;;;9.53;5.07;;;1.20;99.90;;;;;;4998859;23;20167;-95
2024/01/19 12:25:39;;;;;;;9.50;3.93;;;1.30;99.90;;;;;;4998705;23;20176;-94
2024/01/19 12:28:36;;;;;;;6.53;3.30;;;1.50;99.90;;;;;;4998302;23;20181;-95
2024/01/19 12:32:11;;;;;;;7.90;3.57;;;1.80;99.90;;;;;;4967499;23;20195;-96
2024/01/19 12:34:18;;;;;;;6.27;3.80;;;1.80;99.90;;;;;;4991732;23;20154;-96
2024/01/19 12:36:40;;;;;;;11.33;3.77;;;1.80;99.90;;;;;;5026377;23;20210;-94
2024/01/19 12:38:44;;;;;;;8.13;4.90;;;1.90;99.90;;;;;;4998249;23;20162;-93
2024/01/19 12:40:45;;;;;;;12.93;5.30;;;2.00;99.90;;;;;;4998374;23;20175;-93
2024/01/19 12:42:47;;;;;;;8.10;4.33;;;2.40;99.90;;;;;;4998747;23;20179;-94
2024/01/19 12:44:47;;;;;;;8.87;4.07;;;2.40;99.90;;;;;;4998170;23;20159;-94
2024/01/19 12:46:48;;;;;;;12.93;4.03;;;2.20;99.90;;;;;;5021691;23;20179;-95
2024/01/19 12:48:58;;;;;;;10.57;5.57;;;2.20;99.90;;;;;;4998811;23;20163;-92
2024/01/19 12:51:04;;;;;;;13.47;6.23;;;2.00;99.90;;;;;;5022078;23;20202;-95
2024/01/19 12:53:05;;;;;;;11.57;4.33;;;2.00;99.90;;;;;;4998168;23;20152;-93
2024/01/19 12:55:08;;;;;;;14.10;3.57;;;2.10;99.90;;;;;;5021936;23;20222;-94
2024/01/19 12:57:18;;;;;;;13.13;5.47;;;2.10;99.90;;;;;;5021833;23;20246;-95
2024/01/19 12:59:22;;;;;;;10.50;5.73;;;2.20;99.90;;;;;;5021838;23;20539;-93
2024/01/19 13:01:25;;;;;;;12.97;5.27;;;2.30;99.90;;;;;;4997929;23;20174;-93
2024/01/19 13:03:26;;;;;;;5.67;2.63;;;2.20;99.90;;;;;;4997943;23;20187;-95
2024/01/19 13:05:29;;;;;;;9.50;4.47;;;2.10;99.90;;;;;;4997977;23;20156;-95
2024/01/19 13:07:30;;;;;;;12.13;4.67;;;2.00;99.90;;;;;;5022197;23;20161;-95
2024/01/19 13:09:31;;;;;;;10.87;5.23;;;2.30;99.90;;;;;;4998112;23;20606;-95
2024/01/19 13:11:34;;;;;;;15.23;5.50;;;2.40;99.90;;;;;;4997662;23;20205;-93
2024/01/19 13:13:38;;;;;;;7.43;2.60;;;2.40;99.90;;;;;;4998128;23;20632;-94
2024/01/19 13:15:39;;;;;;;14.30;4.87;;;2.20;99.90;;;;;;4997772;23;20187;-95
2024/01/19 13:17:42;;;;;;;8.60;3.97;;;2.20;99.90;;;;;;5022011;23;20598;-95
2024/01/19 13:19:46;;;;;;;6.07;3.90;;;2.30;99.90;;;;;;5021467;23;20170;-93
2024/01/19 13:21:48;;;;;;;13.00;3.53;;;2.30;99.90;;;;;;5042928;23;20169;-96
2024/01/19 13:23:49;;;;;;;8.07;4.67;;;2.10;99.90;;;;;;5021562;23;20151;-94
2024/01/19 13:25:56;;;;;;;6.83;3.53;;;2.00;99.90;;;;;;5020019;23;20214;-93
2024/01/19 13:27:58;;;;;;;7.83;3.87;;;1.90;99.90;;;;;;5021111;23;20154;-94
2024/01/19 13:30:40;;;;;;;16.60;4.27;;;2.00;99.90;;;;;;5046919;23;20158;-96
2024/01/19 13:32:43;;;;;;;10.63;3.73;;;1.90;99.90;;;;;;5001426;23;20233;-95
2024/01/19 13:34:51;;;;;;;7.20;4.30;;;2.00;99.90;;;;;;5021660;23;20587;-94
2024/01/19 13:37:13;;;;;;;7.40;4.03;;;2.20;99.90;;;;;;5068472;23;20231;-92
2024/01/19 13:39:13;;;;;;;15.30;4.93;;;2.10;99.90;;;;;;5020844;23;20540;-92
2024/01/19 13:41:15;;;;;;;10.53;4.30;;;2.20;99.90;;;;;;5045403;23;20154;-94